createdAt,value
2023-04-11T00:01:34.803Z,16.60
2023-04-11T00:06:37.102Z,15.13
2023-04-11T00:11:39.464Z,17.27
2023-04-11T00:16:42.937Z,17.07
2023-04-11T00:21:45.533Z,18.90
2023-04-11T00:26:47.825Z,17.10
2023-04-11T00:31:50.447Z,17.70
2023-04-11T00:36:52.924Z,17.07
2023-04-11T00:42:07.477Z,18.73
2023-04-11T00:47:09.941Z,18.27
2023-04-11T00:52:14.009Z,17.23
2023-04-11T00:57:16.491Z,16.50
2023-04-11T01:02:19.411Z,19.43
2023-04-11T01:07:23.033Z,17.07
2023-04-11T01:12:25.922Z,17.57
2023-04-11T01:17:28.255Z,15.13
2023-04-11T01:22:30.943Z,16.30
2023-04-11T01:27:34.465Z,17.23
2023-04-11T01:32:37.010Z,18.87
2023-04-11T01:37:39.846Z,16.10
2023-04-11T01:42:42.770Z,15.93
2023-04-11T01:47:45.398Z,15.77
2023-04-11T01:52:51.702Z,14.87
2023-04-11T01:57:54.003Z,15.93
2023-04-11T02:02:56.798Z,16.33
2023-04-11T02:07:59.106Z,16.37
2023-04-11T02:13:01.399Z,15.43
2023-04-11T02:18:03.863Z,17.07
2023-04-11T02:23:06.349Z,15.50
2023-04-11T02:28:08.609Z,15.73
2023-04-11T02:33:10.965Z,16.27
2023-04-11T02:38:13.412Z,15.60
2023-04-11T02:43:16.562Z,15.73
2023-04-11T02:48:18.816Z,16.10
2023-04-11T02:53:22.019Z,16.63
2023-04-11T02:58:26.273Z,16.37
2023-04-11T03:03:32.574Z,16.53
2023-04-11T03:08:36.443Z,14.73
2023-04-11T03:13:39.746Z,19.43
2023-04-11T03:18:42.160Z,15.97
2023-04-11T03:23:47.164Z,16.43
2023-04-11T03:28:51.109Z,16.90
2023-04-11T03:33:55.197Z,16.50
2023-04-11T03:38:58.560Z,14.63
2023-04-11T03:44:01.259Z,16.47
2023-04-11T03:49:03.743Z,16.77
2023-04-11T03:54:06.629Z,16.10
2023-04-11T03:59:13.174Z,17.67
2023-04-11T04:04:26.768Z,15.20
2023-04-11T04:09:42.255Z,15.43
2023-04-11T04:14:46.336Z,16.80
2023-04-11T04:19:52.040Z,15.67
2023-04-11T04:24:58.419Z,15.87
2023-04-11T04:30:08.031Z,16.47
2023-04-11T04:35:30.094Z,14.40
2023-04-11T04:40:40.492Z,14.93
2023-04-11T04:50:48.819Z,14.83
2023-04-11T04:55:51.761Z,14.30
2023-04-11T05:00:56.427Z,15.70
2023-04-11T05:06:04.370Z,15.70
2023-04-11T05:11:07.470Z,15.93
2023-04-11T05:16:11.548Z,15.50
2023-04-11T05:21:15.015Z,17.47
2023-04-11T05:26:19.950Z,16.50
2023-04-11T05:31:22.609Z,16.80
2023-04-11T05:36:26.158Z,18.23
2023-04-11T05:41:28.585Z,16.77
2023-04-11T05:46:31.057Z,17.87
2023-04-11T05:51:33.529Z,15.67
2023-04-11T05:56:37.765Z,15.47
2023-04-11T06:01:40.551Z,16.10
2023-04-11T06:06:43.806Z,15.97
2023-04-11T06:11:48.297Z,14.80
2023-04-11T06:16:50.602Z,14.87
2023-04-11T06:21:52.972Z,15.20
2023-04-11T06:26:55.263Z,14.77
2023-04-11T06:31:59.141Z,13.90
2023-04-11T06:37:01.527Z,14.93
2023-04-11T06:42:04.500Z,16.30
2023-04-11T06:47:08.572Z,15.53
2023-04-11T06:52:11.024Z,15.93
2023-04-11T06:57:13.857Z,14.07
2023-04-11T07:02:16.315Z,14.27
2023-04-11T07:07:18.682Z,13.07
2023-04-11T07:12:21.152Z,11.30
2023-04-11T07:17:23.612Z,13.30
2023-04-11T07:22:26.053Z,13.33
2023-04-11T07:27:29.204Z,13.47
2023-04-11T07:32:31.542Z,14.23
2023-04-11T07:37:34.268Z,13.80
2023-04-11T07:42:36.673Z,13.77
2023-04-11T07:47:39.045Z,11.90
2023-04-11T07:52:41.400Z,12.83
2023-04-11T07:57:43.726Z,12.60
2023-04-11T08:02:46.496Z,13.40
2023-04-11T08:07:48.907Z,13.00
2023-04-11T08:12:51.261Z,12.93
2023-04-11T08:17:56.975Z,12.37
2023-04-11T08:22:59.807Z,11.10
2023-04-11T08:28:02.736Z,12.63
2023-04-11T08:33:05.196Z,12.53
2023-04-11T08:38:07.485Z,11.87
2023-04-11T08:43:12.584Z,11.97
2023-04-11T08:48:15.347Z,11.33
2023-04-11T08:53:19.228Z,12.07
2023-04-11T08:58:21.776Z,11.13
2023-04-11T09:03:24.447Z,10.83
2023-04-11T09:08:38.349Z,10.90
2023-04-11T09:13:40.755Z,9.87
2023-04-11T09:18:45.440Z,10.37
2023-04-11T09:23:47.794Z,11.33
2023-04-11T09:28:54.106Z,9.67
2023-04-11T09:33:59.363Z,10.17
2023-04-11T09:39:17.330Z,10.20
2023-04-11T09:44:19.658Z,10.00
2023-04-11T09:49:23.580Z,9.43
2023-04-11T09:54:27.751Z,10.07
2023-04-11T09:59:30.525Z,9.57
2023-04-11T10:04:34.966Z,10.03
2023-04-11T10:09:43.385Z,10.43
2023-04-11T10:14:45.965Z,9.97
2023-04-11T10:19:49.175Z,10.07
2023-04-11T10:25:17.445Z,9.10
2023-04-11T10:30:39.804Z,9.60
2023-04-11T10:36:11.103Z,8.70
2023-04-11T10:41:34.170Z,9.37
2023-04-11T10:46:44.884Z,8.97
2023-04-11T10:51:47.445Z,8.97
2023-04-11T10:56:51.001Z,9.00
2023-04-11T11:01:56.192Z,8.37
2023-04-11T11:07:01.698Z,7.83
2023-04-11T11:12:08.730Z,8.23
2023-04-11T11:17:16.084Z,8.83
2023-04-11T11:22:19.597Z,8.43
2023-04-11T11:27:23.916Z,7.97
2023-04-11T11:32:30.307Z,8.13
2023-04-11T11:37:32.709Z,7.60
2023-04-11T11:42:37.007Z,8.00
2023-04-11T11:47:43.755Z,7.93
2023-04-11T11:52:49.049Z,8.33
2023-04-11T11:57:51.469Z,8.87
2023-04-11T12:02:55.785Z,9.17
2023-04-11T12:07:59.956Z,10.77
2023-04-11T12:13:02.383Z,11.20
2023-04-11T12:18:07.140Z,11.10
2023-04-11T12:23:09.650Z,9.67
2023-04-11T12:28:12.616Z,9.03
2023-04-11T12:33:15.101Z,8.50
2023-04-11T12:38:18.196Z,9.33
2023-04-11T12:43:21.046Z,9.77
2023-04-11T12:48:23.401Z,8.27
2023-04-11T12:53:25.719Z,8.90
2023-04-11T12:58:29.169Z,11.00
2023-04-11T13:03:31.737Z,8.77
2023-04-11T13:08:34.174Z,9.83
2023-04-11T13:13:37.021Z,9.53
2023-04-11T13:18:39.502Z,7.90
2023-04-11T13:23:41.964Z,7.93
2023-04-11T13:28:44.349Z,7.97
2023-04-11T13:33:48.339Z,8.80
2023-04-11T13:38:51.690Z,9.00
2023-04-11T13:43:54.518Z,8.23
2023-04-11T13:48:57.254Z,7.17
2023-04-11T13:54:02.697Z,7.90
2023-04-11T13:59:05.187Z,7.50
2023-04-11T14:04:07.921Z,7.50
2023-04-11T14:09:10.789Z,6.40
2023-04-11T14:14:13.120Z,7.70
2023-04-11T14:19:16.169Z,10.20
2023-04-11T14:24:22.394Z,10.17
2023-04-11T14:29:26.342Z,8.63
2023-04-11T14:34:29.100Z,9.23
2023-04-11T14:39:32.043Z,10.33
2023-04-11T14:44:35.818Z,10.77
2023-04-11T14:49:38.149Z,11.23
2023-04-11T14:54:40.550Z,11.53
2023-04-11T14:59:45.657Z,17.30
2023-04-11T15:04:48.077Z,19.90
2023-04-11T15:09:50.394Z,14.97
2023-04-11T15:14:52.845Z,14.17
2023-04-11T15:19:55.431Z,11.50
2023-04-11T15:24:57.881Z,11.87
2023-04-11T15:30:02.588Z,13.03
2023-04-11T15:35:05.709Z,12.73
2023-04-11T15:40:12.558Z,16.00
2023-04-11T15:45:15.052Z,18.03
2023-04-11T15:50:17.904Z,19.47
2023-04-11T15:55:20.383Z,15.03
2023-04-11T16:00:27.644Z,14.43
2023-04-11T16:05:33.441Z,13.77
2023-04-11T16:10:35.936Z,15.03
2023-04-11T16:15:38.390Z,16.80
2023-04-11T16:20:41.905Z,15.67
2023-04-11T16:25:45.538Z,12.10
2023-04-11T16:30:48.725Z,14.23
2023-04-11T16:35:51.442Z,15.47
2023-04-11T16:40:54.023Z,16.53
2023-04-11T16:45:56.491Z,12.87
2023-04-11T16:50:58.965Z,11.83
2023-04-11T16:56:01.494Z,14.20
2023-04-11T17:01:04.277Z,13.00
2023-04-11T17:06:16.804Z,13.50
2023-04-11T17:11:19.526Z,15.70
2023-04-11T17:16:22.095Z,14.37
2023-04-11T17:21:24.797Z,17.03
2023-04-11T17:26:27.271Z,17.27
2023-04-11T17:31:30.199Z,19.20
2023-04-11T17:36:32.598Z,21.23
2023-04-11T17:41:35.027Z,23.00
2023-04-11T17:46:37.675Z,20.70
2023-04-11T17:51:48.884Z,15.20
2023-04-11T17:56:55.247Z,13.87
2023-04-11T18:01:57.908Z,15.17
2023-04-11T18:07:01.105Z,16.70
2023-04-11T18:12:03.528Z,13.63
2023-04-11T18:17:05.917Z,15.03
2023-04-11T18:22:08.579Z,15.27
2023-04-11T18:27:11.371Z,15.93
2023-04-11T18:32:14.688Z,14.73
2023-04-11T18:37:18.047Z,15.30
2023-04-11T18:42:20.359Z,20.00
2023-04-11T18:47:22.776Z,18.13
2023-04-11T18:52:25.844Z,19.30
2023-04-11T18:57:33.752Z,18.33
2023-04-11T19:02:37.720Z,16.10
2023-04-11T19:07:43.180Z,18.90
2023-04-11T19:12:45.643Z,13.90
2023-04-11T19:17:48.064Z,14.30
2023-04-11T19:22:51.946Z,14.80
2023-04-11T19:27:54.256Z,14.60
2023-04-11T19:32:57.586Z,15.57
2023-04-11T19:38:02.684Z,15.30
2023-04-11T19:43:05.276Z,16.13
2023-04-11T19:48:07.677Z,15.27
2023-04-11T19:53:10.179Z,15.60
2023-04-11T19:58:12.617Z,14.50
2023-04-11T20:03:15.254Z,15.07
2023-04-11T20:08:18.185Z,15.23
2023-04-11T20:13:20.589Z,16.70
2023-04-11T20:18:22.956Z,15.87
2023-04-11T20:23:25.259Z,14.73
2023-04-11T20:28:27.655Z,15.17
2023-04-11T20:33:30.205Z,14.67
2023-04-11T20:38:32.702Z,18.43
2023-04-11T20:43:42.162Z,15.10
2023-04-11T20:53:46.906Z,14.67
2023-04-11T20:58:49.377Z,15.60
2023-04-11T21:03:52.028Z,14.47
2023-04-11T21:08:54.489Z,14.10
2023-04-11T21:13:57.044Z,16.73
2023-04-11T21:18:59.442Z,15.47
2023-04-11T21:24:02.266Z,16.13
2023-04-11T21:29:04.623Z,17.00
2023-04-11T21:34:07.214Z,15.30
2023-04-11T21:39:09.624Z,15.80
2023-04-11T21:44:11.957Z,16.67
2023-04-11T21:49:14.452Z,17.10
2023-04-11T21:54:16.854Z,18.97
2023-04-11T21:59:19.324Z,17.10
2023-04-11T22:04:21.870Z,17.47
2023-04-11T22:09:24.944Z,16.53
2023-04-11T22:14:29.527Z,16.63
2023-04-11T22:19:34.054Z,15.67
2023-04-11T22:24:38.649Z,14.23
2023-04-11T22:29:41.695Z,15.43
2023-04-11T22:34:44.002Z,16.30
2023-04-11T22:39:47.100Z,16.23
2023-04-11T22:44:49.376Z,15.97
2023-04-11T22:49:51.713Z,16.17
2023-04-11T22:54:55.228Z,15.47
2023-04-11T23:00:00.515Z,15.83
2023-04-11T23:05:04.189Z,18.10
2023-04-11T23:10:09.455Z,16.10
2023-04-11T23:15:12.851Z,17.57
2023-04-11T23:20:15.413Z,14.10
2023-04-11T23:25:17.791Z,15.13
2023-04-11T23:30:20.710Z,17.27
2023-04-11T23:35:24.013Z,16.23
2023-04-11T23:40:26.403Z,15.30
2023-04-11T23:45:28.753Z,14.13
2023-04-11T23:50:31.056Z,15.20
2023-04-11T23:55:33.372Z,13.77
